Time;durP1;ratioP1;P1;durP2;ratioP2;P2;SDS_P1;SDS_P2;PMS_P1;PMS_P2;Temp;Humidity;BMP_temperature;BMP_pressure;BME280_temperature;BME280_humidity;BME280_pressure;Samples;Min_cycle;Max_cycle;Signal;HPM_P1;HPM_P2
2021/11/07 00:00:56;;;;;;;51.00;47.70;;;;;;;13.07;100.00;102094.93;1905380;73;86127;-70
2021/11/07 00:06:20;;;;;;;52.53;49.23;;;;;;;13.09;100.00;102108.88;1888762;74;39445;-72
2021/11/07 00:11:42;;;;;;;49.97;46.57;;;;;;;13.01;100.00;102110.80;1901872;75;86464;-73
2021/11/07 00:17:06;;;;;;;49.60;46.30;;;;;;;12.87;100.00;102109.62;1918845;74;39606;-74
2021/11/07 00:22:37;;;;;;;48.90;45.70;;;;;;;12.92;100.00;102120.78;1913567;74;39578;-75
2021/11/07 00:27:59;;;;;;;50.10;46.67;;;;;;;12.89;100.00;102117.70;1947140;71;86711;-74
2021/11/07 00:33:27;;;;;;;49.37;46.27;;;;;;;12.79;100.00;102111.53;1876858;74;39650;-74
2021/11/07 00:38:53;;;;;;;53.03;49.73;;;;;;;12.73;100.00;102110.64;1905024;74;86411;-73
2021/11/07 00:44:19;;;;;;;51.43;48.33;;;;;;;12.72;100.00;102106.17;1916274;74;39543;-77
2021/11/07 00:49:45;;;;;;;49.87;46.60;;;;;;;12.76;100.00;102111.49;1901706;73;86564;-78
2021/11/07 00:55:13;;;;;;;48.50;45.50;;;;;;;12.86;100.00;102120.48;1884618;74;39420;-73
2021/11/07 01:00:48;;;;;;;48.00;45.00;;;;;;;12.92;100.00;102129.73;1901986;75;85845;-73
2021/11/07 01:06:07;;;;;;;49.23;46.13;;;;;;;13.11;100.00;102143.52;1918667;74;39544;-76
2021/11/07 01:11:31;;;;;;;46.53;43.53;;;;;;;13.22;100.00;102153.06;1913440;74;39682;-72
2021/11/07 01:16:56;;;;;;;55.73;51.80;;;;;;;13.36;100.00;102153.41;1867478;76;86262;-74
2021/11/07 01:22:28;;;;;;;48.60;45.40;;;;;;;13.31;100.00;102158.13;1914497;74;39942;-72
2021/11/07 01:27:46;;;;;;;48.30;45.30;;;;;;;13.15;100.00;102154.42;1891399;74;85610;-74
2021/11/07 01:33:21;;;;;;;50.03;46.77;;;;;;;13.02;100.00;102146.50;1887257;74;39650;-72
2021/11/07 01:38:50;;;;;;;50.57;47.27;;;;;;;12.93;100.00;102135.56;1891612;74;86030;-77
2021/11/07 01:44:41;;;;;;;51.63;48.20;;;;;;;12.89;100.00;102126.06;1978283;71;39689;-72
2021/11/07 01:50:09;;;;;;;47.57;44.50;;;;;;;12.66;100.00;102120.36;1918354;74;39489;-74
2021/11/07 01:55:39;;;;;;;49.97;46.50;;;;;;;12.48;100.00;102121.62;1901803;73;86375;-72
2021/11/07 02:01:04;;;;;;;49.97;46.70;;;;;;;12.43;100.00;102148.59;1919186;74;39582;-74
2021/11/07 02:06:28;;;;;;;44.83;41.83;;;;;;;12.34;100.00;102118.98;1914011;74;39539;-77
2021/11/07 02:12:12;;;;;;;43.30;40.60;;;;;;;12.24;100.00;102115.55;1831862;76;86464;-76
2021/11/07 02:17:38;;;;;;;38.53;36.03;;;;;;;12.09;100.00;102124.34;1901774;73;86372;-74
2021/11/07 02:23:07;;;;;;;35.37;32.93;;;;;;;12.10;100.00;102118.52;1919038;74;39631;-74
2021/11/07 02:28:35;;;;;;;34.83;32.33;;;;;;;12.03;100.00;102115.63;1913577;74;39790;-77
2021/11/07 02:34:00;;;;;;;35.43;32.73;;;;;;;11.93;100.00;102096.06;1751565;80;86473;-74
2021/11/07 02:39:26;;;;;;;32.43;30.13;;;;;;;11.72;100.00;102104.77;1887128;74;39594;-72
2021/11/07 02:45:11;;;;;;;32.47;30.00;;;;;;;11.83;100.00;102085.66;1894012;74;86249;-75
2021/11/07 02:50:36;;;;;;;28.37;26.20;;;;;;;11.75;100.00;102077.24;1872041;75;86653;-74
2021/11/07 02:56:00;;;;;;;25.70;24.03;;;;;;;11.66;100.00;102064.87;1943985;71;86594;-75
2021/11/07 03:01:44;;;;;;;24.40;22.37;;;;;;;11.79;100.00;102045.53;1922052;72;86108;-77
2021/11/07 03:07:28;;;;;;;23.63;21.50;;;;;;;11.71;100.00;102051.01;1984277;71;39561;-76
2021/11/07 03:13:09;;;;;;;22.97;21.37;;;;;;;11.69;100.00;102060.16;1912663;75;85811;-74
2021/11/07 03:18:53;;;;;;;23.30;21.77;;;;;;;11.75;100.00;102049.95;1868343;75;86606;-72
2021/11/07 03:24:18;;;;;;;24.57;22.60;;;;;;;11.37;100.00;102053.16;1916439;74;39634;-73
2021/11/07 03:30:07;;;;;;;23.67;21.47;;;;;;;11.39;100.00;102066.78;1881867;73;86258;-76
2021/11/07 03:35:31;;;;;;;23.73;22.03;;;;;;;11.47;100.00;102060.75;1914228;74;39652;-77
2021/11/07 03:40:55;;;;;;;24.20;22.50;;;;;;;11.38;100.00;102059.56;1877420;76;86464;-78
2021/11/07 03:46:26;;;;;;;28.60;26.63;;;;;;;10.77;100.00;102066.30;1914649;74;39792;-74
2021/11/07 03:52:12;;;;;;;30.23;28.33;;;;;;;10.61;100.00;102058.27;1881770;74;86542;-70
2021/11/07 03:57:37;;;;;;;29.53;27.37;;;;;;;10.44;100.00;102058.31;1901960;75;85466;-72
2021/11/07 04:03:05;;;;;;;30.13;28.00;;;;;;;10.45;100.00;102064.16;1876926;74;40077;-74
2021/11/07 04:08:49;;;;;;;30.17;27.90;;;;;;;10.46;100.00;102053.90;1921057;73;86295;-77
2021/11/07 04:14:14;;;;;;;30.17;27.87;;;;;;;10.48;100.00;102048.95;1916869;74;39783;-76
2021/11/07 04:19:37;;;;;;;28.60;26.07;;;;;;;10.62;100.00;102036.34;1902063;73;86265;-77
2021/11/07 04:25:00;;;;;;;27.50;25.70;;;;;;;10.67;100.00;102043.37;1782669;79;85624;-74
2021/11/07 04:30:31;;;;;;;26.57;24.90;;;;;;;10.79;100.00;102045.47;1873426;74;39451;-72
2021/11/07 04:35:56;;;;;;;27.37;25.57;;;;;;;10.91;100.00;102034.25;1825341;78;86647;-74
2021/11/07 04:41:21;;;;;;;29.83;27.83;;;;;;;10.79;100.00;102037.68;1915623;74;39566;-76
2021/11/07 04:46:45;;;;;;;28.93;26.50;;;;;;;10.86;100.00;102051.70;1892062;74;86316;-74
2021/11/07 04:52:09;;;;;;;30.00;28.00;;;;;;;10.86;100.00;102057.81;1878753;74;39462;-76
2021/11/07 04:57:34;;;;;;;31.10;28.93;;;;;;;10.62;100.00;102046.61;1913353;74;40213;-74
2021/11/07 05:03:00;;;;;;;31.70;29.57;;;;;;;10.58;100.00;102057.95;1777629;79;86236;-73
2021/11/07 05:08:26;;;;;;;32.57;30.40;;;;;;;10.58;100.00;102046.84;1914861;74;39695;-77
2021/11/07 05:13:51;;;;;;;30.77;28.53;;;;;;;10.74;100.00;102043.20;1903459;74;86184;-74
2021/11/07 05:19:15;;;;;;;31.13;29.07;;;;;;;10.74;100.00;102030.70;1916578;74;39527;-74
2021/11/07 05:24:39;;;;;;;28.93;26.83;;;;;;;10.67;100.00;102021.14;1901915;74;86411;-73
2021/11/07 05:30:06;;;;;;;29.77;27.63;;;;;;;10.75;100.00;102013.73;1919364;74;40200;-75
2021/11/07 05:35:30;;;;;;;29.10;27.17;;;;;;;10.70;100.00;102028.95;1913830;74;39603;-74
2021/11/07 05:40:55;;;;;;;30.80;28.17;;;;;;;10.69;100.00;102037.56;1862164;76;86135;-72
2021/11/07 05:46:20;;;;;;;31.53;29.03;;;;;;;10.57;100.00;102025.16;1915875;74;39591;-72
2021/11/07 05:51:44;;;;;;;31.83;29.50;;;;;;;10.57;100.00;102020.17;1901858;73;86507;-72
2021/11/07 05:57:08;;;;;;;34.13;31.57;;;;;;;10.28;100.00;102045.84;1892319;74;39553;-72
2021/11/07 06:02:33;;;;;;;35.70;33.10;;;;;;;10.32;100.00;102040.91;1913358;74;39477;-77
2021/11/07 06:07:57;;;;;;;36.20;33.30;;;;;;;10.35;100.00;102015.97;1887916;74;85596;-73
2021/11/07 06:13:21;;;;;;;34.50;31.90;;;;;;;10.20;100.00;102018.50;1915469;74;39606;-76
2021/11/07 06:18:45;;;;;;;34.67;32.20;;;;;;;10.18;100.00;102020.70;1904123;74;86454;-73
2021/11/07 06:24:12;;;;;;;36.23;33.33;;;;;;;10.20;100.00;102036.01;1918477;74;39640;-73
2021/11/07 06:29:35;;;;;;;34.70;32.23;;;;;;;10.26;100.00;102037.78;1875767;75;86645;-72
2021/11/07 06:35:00;;;;;;;35.03;32.23;;;;;;;10.17;100.00;102036.52;1946599;71;86748;-71
2021/11/07 06:40:25;;;;;;;36.73;34.27;;;;;;;10.12;100.00;102036.95;1914889;74;39434;-77
2021/11/07 06:45:49;;;;;;;34.70;32.27;;;;;;;10.12;100.00;102044.73;1882004;74;86226;-76
2021/11/07 06:51:13;;;;;;;34.97;32.27;;;;;;;10.11;100.00;102054.69;1917078;74;39492;-77
2021/11/07 06:56:38;;;;;;;37.07;34.57;;;;;;;10.18;100.00;102051.25;1902037;75;86341;-78
2021/11/07 07:02:02;;;;;;;36.83;33.97;;;;;;;10.08;100.00;102057.98;1872985;74;86663;-73
2021/11/07 07:07:29;;;;;;;37.27;34.33;;;;;;;9.96;100.00;102074.73;1914561;74;39671;-78
2021/11/07 07:12:56;;;;;;;37.53;34.70;;;;;;;10.12;100.00;102083.61;1904750;74;86466;-78
2021/11/07 07:18:24;;;;;;;39.67;36.73;;;;;;;9.84;100.00;102078.13;1916168;73;39523;-74
2021/11/07 07:29:52;;;;;;;41.87;38.83;;;;;;;9.90;100.00;102093.22;1914639;74;39417;-72
2021/11/07 07:35:16;;;;;;;44.50;41.57;;;;;;;9.62;100.00;102091.03;1916784;74;39455;-73
2021/11/07 07:40:40;;;;;;;41.97;39.13;;;;;;;9.73;100.00;102101.22;1901885;75;86460;-73
2021/11/07 07:46:07;;;;;;;42.67;39.63;;;;;;;9.71;100.00;102110.34;1877309;74;39402;-72
2021/11/07 07:51:30;;;;;;;43.93;41.10;;;;;;;9.78;100.00;102106.87;1914284;74;39425;-76
2021/11/07 07:56:55;;;;;;;41.97;38.77;;;;;;;9.83;100.00;102105.03;1954693;70;86455;-71
2021/11/07 08:02:19;;;;;;;40.40;37.63;;;;;;;9.95;100.00;102096.09;1915780;74;39447;-72
2021/11/07 08:07:44;;;;;;;41.83;38.70;;;;;;;10.03;100.00;102092.90;1901999;73;86249;-74
2021/11/07 08:13:09;;;;;;;40.80;37.73;;;;;;;10.22;100.00;102113.52;1918225;73;39796;-74
2021/11/07 08:18:34;;;;;;;39.33;36.50;;;;;;;10.22;100.00;102111.58;1913412;74;39836;-73
2021/11/07 08:24:00;;;;;;;39.70;36.97;;;;;;;10.24;100.00;102118.25;1810621;77;86530;-73
2021/11/07 08:29:24;;;;;;;42.23;38.80;;;;;;;10.37;100.00;102097.09;1915225;73;39552;-73
2021/11/07 08:34:52;;;;;;;40.97;38.10;;;;;;;10.48;100.00;102094.78;1903319;74;86863;-77
2021/11/07 08:40:22;;;;;;;39.87;37.30;;;;;;;10.65;100.00;102126.70;1916362;74;39567;-74
2021/11/07 09:03:28;;;;;;;37.90;34.93;;;;;;;10.89;100.00;102140.14;1919096;74;39882;-74
2021/11/07 09:08:48;;;;;;;36.20;33.43;;;;;;;11.07;100.00;102126.48;1879951;74;86122;-72
2021/11/07 09:14:13;;;;;;;38.20;35.53;;;;;;;11.16;100.00;102128.27;1917073;74;39408;-75
2021/11/07 09:19:38;;;;;;;39.07;36.17;;;;;;;11.20;100.00;102142.80;1901915;73;86356;-74
2021/11/07 09:25:04;;;;;;;36.57;33.97;;;;;;;11.28;100.00;102158.19;1903477;74;86578;-76
2021/11/07 09:30:31;;;;;;;35.37;32.93;;;;;;;11.39;100.00;102171.96;1914491;74;39473;-73
2021/11/07 09:36:15;;;;;;;31.93;29.47;;;;;;;11.43;100.00;102177.84;1793822;79;86261;-78
2021/11/07 09:41:50;;;;;;;32.00;29.63;;;;;;;11.57;100.00;102174.12;1902008;73;86469;-74
2021/11/07 09:47:07;;;;;;;33.17;30.77;;;;;;;11.53;100.00;102180.77;1893489;74;39464;-75
2021/11/07 09:52:37;;;;;;;34.53;31.93;;;;;;;11.52;100.00;102176.30;1913817;74;39535;-75
2021/11/07 09:58:03;;;;;;;32.17;29.47;;;;;;;11.63;100.00;102189.80;1889570;74;86801;-74
2021/11/07 10:03:32;;;;;;;34.10;31.17;;;;;;;11.82;100.00;102190.61;1913953;74;39649;-73
2021/11/07 10:08:56;;;;;;;30.77;28.10;;;;;;;12.01;100.00;102202.80;1777511;79;85527;-74
2021/11/07 10:14:21;;;;;;;33.57;30.73;;;;;;;12.10;100.00;102208.20;1915783;74;39549;-72
2021/11/07 10:19:48;;;;;;;31.67;28.93;;;;;;;12.12;100.00;102217.11;1880536;74;86296;-72
2021/11/07 10:25:20;;;;;;;30.10;27.53;;;;;;;12.15;100.00;102209.06;1916196;74;39618;-74
2021/11/07 10:30:48;;;;;;;32.53;29.73;;;;;;;12.19;100.00;102208.83;1902543;74;85363;-76
2021/11/07 10:37:09;;;;;;;27.60;24.93;;;;;;;12.23;100.00;102217.53;1913517;74;39662;-73
2021/11/07 10:45:25;;;;;;;26.80;24.53;;;;;;;12.37;100.00;102184.48;1998460;69;39498;-73
2021/11/07 10:48:19;;;;;;;27.57;25.17;;;;;;;12.31;100.00;102196.15;1895385;74;938770;-75
2021/11/07 10:53:36;;;;;;;26.70;24.30;;;;;;;12.40;100.00;102195.12;1895628;73;940898;-73
2021/11/07 10:59:09;;;;;;;26.27;24.23;;;;;;;12.51;100.00;102177.37;1889546;74;86238;-76
2021/11/07 11:04:34;;;;;;;25.17;23.17;;;;;;;12.46;100.00;102171.74;1913421;74;39411;-74
2021/11/07 11:10:16;;;;;;;24.20;22.27;;;;;;;12.57;100.00;102165.17;1903356;74;86369;-72
2021/11/07 11:28:05;;;;;;;48.00;38.93;;;;;;;12.52;100.00;102156.20;1903557;74;86521;-73
2021/11/07 11:33:34;;;;;;;22.23;20.17;;;;;;;12.64;100.00;102144.31;1914617;74;39496;-72
2021/11/07 11:39:04;;;;;;;22.30;20.27;;;;;;;12.66;100.00;102150.44;1899696;74;86381;-75
2021/11/07 11:44:25;;;;;;;23.43;21.47;;;;;;;12.71;100.00;102147.70;1914973;74;39875;-75
2021/11/07 11:50:22;;;;;;;24.97;22.60;;;;;;;12.79;100.00;102116.52;1793733;79;86821;-71
2021/11/07 11:55:47;;;;;;;20.93;19.20;;;;;;;12.91;100.00;102129.44;1901913;75;86473;-74
2021/11/07 12:01:18;;;;;;;22.23;19.97;;;;;;;12.93;100.00;102141.14;1871663;74;39544;-73
2021/11/07 12:06:49;;;;;;;22.50;20.53;;;;;;;12.85;100.00;102145.84;1901938;74;86577;-72
2021/11/07 12:12:19;;;;;;;21.10;19.37;;;;;;;12.83;100.00;102150.31;1916757;74;39635;-75
2021/11/07 12:18:05;;;;;;;21.43;19.40;;;;;;;12.77;100.00;102140.22;1825572;78;86366;-76
2021/11/07 12:23:33;;;;;;;21.00;18.90;;;;;;;12.82;100.00;102149.17;1868562;74;39769;-72
2021/11/07 12:29:16;;;;;;;19.97;18.23;;;;;;;12.92;100.00;102154.25;1916651;73;39529;-72
2021/11/07 12:35:08;;;;;;;22.20;19.93;;;;;;;12.97;100.00;102144.52;1943779;70;85434;-73
2021/11/07 12:40:58;;;;;;;21.90;19.90;;;;;;;12.94;100.00;102149.80;1913034;74;39563;-73
2021/11/07 12:46:44;;;;;;;22.63;20.40;;;;;;;13.08;100.00;102156.04;1901874;74;86339;-73
2021/11/07 12:52:19;;;;;;;20.73;18.70;;;;;;;13.14;100.00;102162.50;1915960;74;39696;-76
2021/11/07 12:57:44;;;;;;;19.37;17.47;;;;;;;13.19;100.00;102153.61;1901760;73;87021;-70
2021/11/07 13:03:11;;;;;;;19.40;17.60;;;;;;;13.31;100.00;102139.98;1918402;74;39761;-72
2021/11/07 13:08:35;;;;;;;18.47;16.60;;;;;;;13.28;100.00;102153.94;1885214;74;39815;-73
2021/11/07 13:14:03;;;;;;;20.23;18.00;;;;;;;13.27;100.00;102145.83;1846964;75;85817;-72
2021/11/07 13:19:44;;;;;;;19.47;16.60;;;;;;;13.47;100.00;102148.17;1869134;74;39721;-73
2021/11/07 13:25:44;;;;;;;17.67;15.90;;;;;;;13.31;100.00;102146.95;1944130;71;39664;-73
2021/11/07 13:31:11;;;;;;;18.87;17.37;;;;;;;13.26;100.00;102147.80;1919024;73;39788;-74
2021/11/07 13:36:42;;;;;;;19.20;15.63;;;;;;;13.38;100.00;102132.22;1872222;75;86564;-73
2021/11/07 13:42:11;;;;;;;17.93;16.17;;;;;;;13.43;100.00;102136.44;1885652;74;39736;-72
2021/11/07 13:47:54;;;;;;;18.33;16.53;;;;;;;13.45;100.00;102132.23;1825284;76;86426;-74
2021/11/07 13:53:21;;;;;;;15.97;14.60;;;;;;;13.42;100.00;102136.98;1915832;74;39526;-73
2021/11/07 13:58:47;;;;;;;18.07;16.33;;;;;;;13.50;100.00;102139.80;1901833;74;86711;-72
2021/11/07 14:04:12;;;;;;;16.43;14.93;;;;;;;13.51;100.00;102145.13;1917120;74;39565;-73
2021/11/07 14:09:37;;;;;;;16.80;14.10;;;;;;;13.57;100.00;102138.98;1902059;75;86586;-75
2021/11/07 14:15:14;;;;;;;16.60;14.33;;;;;;;13.66;100.00;102135.94;1901795;74;86506;-70
2021/11/07 14:20:46;;;;;;;17.00;15.43;;;;;;;13.66;100.00;102153.53;1901902;73;86654;-73
2021/11/07 14:26:14;;;;;;;14.23;12.93;;;;;;;13.49;100.00;102154.31;1918468;74;39477;-71
2021/11/07 14:32:15;;;;;;;15.13;13.73;;;;;;;13.51;100.00;102145.67;1883382;75;86361;-70
2021/11/07 14:37:45;;;;;;;17.33;15.07;;;;;;;13.54;100.00;102149.30;1901899;73;85686;-71
2021/11/07 14:43:11;;;;;;;16.67;14.03;;;;;;;13.39;100.00;102154.25;1918757;74;39642;-70
2021/11/07 14:48:48;;;;;;;14.97;13.67;;;;;;;13.33;100.00;102160.94;1913100;74;39823;-71
2021/11/07 14:57:15;;;;;;;15.77;14.03;;;;;;;13.20;100.00;102146.08;2009942;69;39623;-72
2021/11/07 14:59:43;;;;;;;15.40;14.00;;;;;;;13.25;100.00;102146.12;1935972;73;938857;-73
2021/11/07 15:02:27;;;;;;;16.03;14.50;;;;;;;13.18;100.00;102149.69;1923478;73;940856;-72
2021/11/07 15:04:58;;;;;;;14.83;13.10;;;;;;;13.24;100.00;102165.36;1935706;73;940939;-72
2021/11/07 15:07:33;;;;;;;15.03;13.72;;;;;;;13.16;100.00;102150.53;1923440;72;940997;-71
2021/11/07 15:10:19;;;;;;;15.30;13.90;;;;;;;13.12;100.00;102146.61;1935989;73;939294;-69
2021/11/07 15:12:58;;;;;;;14.90;13.45;;;;;;;13.07;100.00;102143.20;1935481;73;940871;-71
2021/11/07 15:15:39;;;;;;;18.07;14.67;;;;;;;13.07;100.00;102139.56;1922854;73;940925;-73
2021/11/07 15:21:29;;;;;;;15.03;13.63;;;;;;;13.05;100.00;102139.02;1915625;74;39685;-72
2021/11/07 15:26:56;;;;;;;17.07;15.57;;;;;;;12.89;100.00;102127.45;1903416;74;86364;-72
2021/11/07 15:32:20;;;;;;;18.53;14.90;;;;;;;12.70;100.00;102117.31;1915579;74;39577;-71
2021/11/07 15:37:45;;;;;;;16.80;15.10;;;;;;;12.80;100.00;102120.15;1891385;74;86644;-72
2021/11/07 15:43:19;;;;;;;15.63;14.33;;;;;;;12.81;100.00;102123.78;1917834;73;39421;-72
2021/11/07 15:48:46;;;;;;;21.57;16.53;;;;;;;12.50;100.00;102129.69;1901548;73;86234;-71
2021/11/07 15:54:15;;;;;;;17.70;14.80;;;;;;;12.59;100.00;102139.24;1917935;74;39529;-72
2021/11/07 15:59:58;;;;;;;22.27;20.37;;;;;;;12.10;100.00;102136.62;1901562;75;86236;-75
2021/11/07 16:05:29;;;;;;;22.40;20.33;;;;;;;11.62;100.00;102164.45;1915883;74;39598;-77
2021/11/07 16:10:58;;;;;;;21.83;19.70;;;;;;;11.62;100.00;102164.45;1903296;74;86790;-73
2021/11/07 16:16:34;;;;;;;30.47;27.87;;;;;;;11.20;100.00;102166.98;1878334;74;39589;-73
2021/11/07 16:21:55;;;;;;;32.40;29.40;;;;;;;10.98;100.00;102163.33;1833559;76;86376;-72
2021/11/07 16:27:21;;;;;;;39.17;36.37;;;;;;;10.77;100.00;102166.35;1915834;74;39646;-71
2021/11/07 16:33:10;;;;;;;37.57;34.87;;;;;;;10.58;100.00;102177.42;1893286;74;86468;-73
2021/11/07 16:38:43;;;;;;;39.60;36.77;;;;;;;10.53;100.00;102184.28;1912922;74;40553;-72
2021/11/07 16:44:00;;;;;;;43.60;40.07;;;;;;;10.41;100.00;102184.38;1902145;74;86364;-73
2021/11/07 16:49:28;;;;;;;41.20;37.37;;;;;;;10.26;100.00;102185.52;1914741;74;40106;-72
2021/11/07 16:54:56;;;;;;;38.63;35.37;;;;;;;10.68;100.00;102202.07;1904466;74;85411;-73
2021/11/07 17:00:23;;;;;;;31.57;29.10;;;;;;;10.35;100.00;102213.17;1915427;74;39699;-71
2021/11/07 17:05:50;;;;;;;33.77;30.57;;;;;;;10.67;100.00;102204.55;1892336;74;86680;-71
2021/11/07 17:11:12;;;;;;;33.90;31.20;;;;;;;10.15;100.00;102206.69;1916845;74;39627;-71
2021/11/07 17:16:45;;;;;;;36.93;34.10;;;;;;;10.54;100.00;102202.64;1901542;73;86811;-70
2021/11/07 17:22:16;;;;;;;33.27;30.60;;;;;;;10.69;100.00;102212.64;1918488;74;39591;-70
2021/11/07 17:27:40;;;;;;;33.37;31.07;;;;;;;10.39;100.00;102215.74;1901876;73;85572;-73
2021/11/07 17:33:09;;;;;;;32.33;29.47;;;;;;;10.36;100.00;102231.50;1918669;74;39695;-74
2021/11/07 17:38:39;;;;;;;31.30;29.00;;;;;;;10.21;100.00;102235.40;1913285;73;39657;-69
2021/11/07 17:50:00;;;;;;;47.20;43.87;;;;;;;9.73;100.00;102244.96;1905283;74;85503;-73
2021/11/07 17:55:26;;;;;;;50.10;46.10;;;;;;;9.23;100.00;102252.17;1914656;74;39584;-72
2021/11/07 18:00:50;;;;;;;52.23;47.87;;;;;;;9.11;100.00;102262.70;1903404;74;85675;-74
2021/11/07 18:06:15;;;;;;;52.53;48.43;;;;;;;8.93;100.00;102269.77;1916735;74;39524;-73
2021/11/07 18:12:00;;;;;;;48.57;44.60;;;;;;;8.94;100.00;102267.84;1884244;74;86260;-73
2021/11/07 18:17:44;;;;;;;46.83;42.83;;;;;;;9.44;100.00;102253.78;1925655;73;86483;-73
2021/11/07 18:23:12;;;;;;;41.33;38.10;;;;;;;9.76;100.00;102232.52;1918563;74;39459;-72
2021/11/07 18:28:37;;;;;;;38.10;35.10;;;;;;;9.98;100.00;102237.15;1872269;75;86381;-73
2021/11/07 18:34:01;;;;;;;41.93;38.53;;;;;;;10.01;100.00;102237.22;1902249;74;86189;-72
2021/11/07 18:39:27;;;;;;;37.73;34.50;;;;;;;9.94;100.00;102240.66;1914826;74;39484;-72
2021/11/07 18:44:50;;;;;;;39.17;36.07;;;;;;;9.96;100.00;102217.14;1903538;74;85736;-72
2021/11/07 18:50:34;;;;;;;37.13;34.13;;;;;;;10.01;100.00;102232.48;1983447;71;39716;-73
2021/11/07 18:55:59;;;;;;;42.07;38.77;;;;;;;9.77;100.00;102255.87;1863216;76;85702;-75
2021/11/07 19:01:23;;;;;;;38.87;35.67;;;;;;;9.81;100.00;102258.45;1915066;74;39614;-72
2021/11/07 19:06:48;;;;;;;37.47;34.50;;;;;;;9.87;100.00;102242.21;1903904;74;86226;-73
2021/11/07 19:12:12;;;;;;;38.27;35.13;;;;;;;9.93;100.00;102243.13;1917405;74;39517;-73
2021/11/07 19:17:38;;;;;;;37.50;34.53;;;;;;;10.09;100.00;102260.95;1901898;74;86386;-73
2021/11/07 19:23:05;;;;;;;38.40;35.43;;;;;;;9.98;100.00;102252.96;1888074;74;39604;-80
2021/11/07 19:28:28;;;;;;;38.03;34.90;;;;;;;9.92;100.00;102253.42;1913956;74;39541;-71
2021/11/07 19:33:52;;;;;;;40.67;37.30;;;;;;;9.87;100.00;102269.12;1866473;76;86694;-75
2021/11/07 19:39:16;;;;;;;41.73;38.30;;;;;;;9.71;100.00;102277.68;1916211;74;39592;-77
2021/11/07 19:44:42;;;;;;;44.30;40.60;;;;;;;9.35;100.00;102291.83;1901923;73;86316;-72
2021/11/07 19:50:10;;;;;;;49.40;45.77;;;;;;;9.33;100.00;102275.41;1918317;74;39551;-70
2021/11/07 19:55:36;;;;;;;43.40;40.17;;;;;;;9.43;100.00;102283.13;1879241;74;39798;-73
2021/11/07 20:01:17;;;;;;;42.60;39.17;;;;;;;9.54;100.00;102280.91;1820897;77;86926;-71
2021/11/07 20:06:59;;;;;;;44.77;41.03;;;;;;;9.33;100.00;102285.13;1902662;73;86750;-72
2021/11/07 20:12:24;;;;;;;45.33;41.70;;;;;;;9.03;100.00;102310.19;1915402;74;40352;-73
2021/11/07 20:20:36;;;;;;;50.33;46.20;;;;;;;8.90;100.00;102348.39;1991965;69;39725;-69
2021/11/07 20:26:02;;;;;;;60.97;55.33;;;;;;;8.69;100.00;102358.06;1873165;74;86509;-74
2021/11/07 20:31:26;;;;;;;49.93;45.73;;;;;;;8.69;100.00;102348.37;1914966;74;39740;-79
2021/11/07 20:37:13;;;;;;;52.43;48.00;;;;;;;8.56;100.00;102352.72;1849176;76;86632;-74
2021/11/07 20:42:41;;;;;;;54.87;50.50;;;;;;;8.50;100.00;102366.14;1872382;75;86440;-72
2021/11/07 20:48:07;;;;;;;53.90;49.77;;;;;;;8.28;100.00;102367.15;1919534;74;39505;-74
2021/11/07 20:53:32;;;;;;;53.13;48.73;;;;;;;8.48;100.00;102376.59;1914199;74;39554;-73
2021/11/07 20:59:20;;;;;;;51.93;47.77;;;;;;;8.77;100.00;102356.34;1861890;76;86713;-77
2021/11/07 21:04:45;;;;;;;49.77;46.27;;;;;;;8.78;100.00;102366.89;1901913;74;86411;-74
2021/11/07 21:10:17;;;;;;;53.87;49.33;;;;;;;8.86;100.00;102376.23;1918340;74;39608;-73
2021/11/07 21:15:45;;;;;;;55.20;50.67;;;;;;;8.49;100.00;102396.28;1901963;73;86459;-73
2021/11/07 21:26:46;;;;;;;55.67;51.70;;;;;;;8.37;100.00;102410.62;1903958;74;86366;-72
2021/11/07 21:32:13;;;;;;;56.63;52.23;;;;;;;7.92;100.00;102410.89;1877603;74;39488;-72
2021/11/07 21:37:42;;;;;;;53.17;49.27;;;;;;;7.89;100.00;102426.58;1902288;74;86330;-73
2021/11/07 21:43:09;;;;;;;52.30;47.63;;;;;;;7.77;100.00;102418.73;1919118;74;39693;-73
2021/11/07 21:48:33;;;;;;;49.67;45.57;;;;;;;7.96;100.00;102420.99;1913066;74;39630;-78
2021/11/07 21:53:58;;;;;;;47.90;43.83;;;;;;;7.77;100.00;102425.65;1902246;74;86746;-75
2021/11/07 21:59:23;;;;;;;51.07;47.00;;;;;;;7.61;100.00;102408.27;1915311;74;39560;-70
2021/11/07 22:04:49;;;;;;;51.10;46.50;;;;;;;7.64;100.00;102428.01;1904056;74;86197;-74
2021/11/07 22:10:16;;;;;;;48.40;44.90;;;;;;;7.42;100.00;102435.02;1916866;74;39511;-77
2021/11/07 22:15:45;;;;;;;47.30;43.00;;;;;;;7.94;100.00;102424.52;1902125;73;85697;-71
2021/11/07 22:21:12;;;;;;;51.27;46.87;;;;;;;7.80;100.00;102421.03;1919420;74;39581;-77
2021/11/07 22:26:34;;;;;;;49.43;45.73;;;;;;;7.74;100.00;102434.41;1914120;74;39648;-73
2021/11/07 22:32:07;;;;;;;49.77;45.53;;;;;;;7.67;100.00;102441.91;1785588;79;86101;-73
2021/11/07 22:37:40;;;;;;;50.03;45.77;;;;;;;7.58;100.00;102436.35;1902595;75;85337;-74
2021/11/07 22:43:06;;;;;;;49.13;45.30;;;;;;;7.69;100.00;102420.41;1919115;74;39599;-69
2021/11/07 22:48:31;;;;;;;51.70;46.90;;;;;;;7.50;100.00;102414.52;1914565;74;39424;-74
2021/11/07 22:53:59;;;;;;;49.57;45.67;;;;;;;7.37;100.00;102418.78;1867251;74;86244;-74
2021/11/07 22:59:45;;;;;;;51.30;47.00;;;;;;;7.43;100.00;102432.56;1915954;74;39803;-68
2021/11/07 23:05:02;;;;;;;53.07;48.17;;;;;;;7.19;100.00;102416.80;1865879;76;86395;-76
2021/11/07 23:10:25;;;;;;;51.20;46.83;;;;;;;7.12;100.00;102442.27;1868877;74;39393;-76
2021/11/07 23:15:48;;;;;;;51.53;47.13;;;;;;;7.15;100.00;102448.19;1906940;74;86830;-71
2021/11/07 23:21:19;;;;;;;50.23;45.40;;;;;;;7.30;100.00;102450.11;1917035;74;39503;-72
2021/11/07 23:26:41;;;;;;;49.40;45.60;;;;;;;7.22;100.00;102451.77;1901815;75;86773;-72
2021/11/07 23:32:10;;;;;;;51.47;47.40;;;;;;;7.39;100.00;102447.06;1918494;74;39542;-72
2021/11/07 23:37:37;;;;;;;49.60;45.50;;;;;;;7.20;100.00;102458.04;1912902;74;39554;-72
2021/11/07 23:43:04;;;;;;;48.27;44.47;;;;;;;7.14;100.00;102466.39;1901938;74;86462;-73
2021/11/07 23:48:30;;;;;;;48.50;44.73;;;;;;;7.06;100.00;102455.05;1914602;74;39620;-73
2021/11/07 23:53:57;;;;;;;53.80;48.60;;;;;;;7.13;100.00;102475.75;1799347;79;86218;-73
2021/11/07 23:59:22;;;;;;;55.53;50.07;;;;;;;7.10;100.00;102467.34;1915785;73;39462;-74
